sensor_id;sensor_type;location;lat;lon;timestamp;P1;durP1;ratioP1;P2;durP2;ratioP2
11998;SDS011;40817;51.520;9.954;2024-03-25T00:01:47;11.27;;;2.67;;
11998;SDS011;40817;51.520;9.954;2024-03-25T00:04:13;10.60;;;2.50;;
11998;SDS011;40817;51.520;9.954;2024-03-25T00:06:41;9.77;;;2.53;;
11998;SDS011;40817;51.520;9.954;2024-03-25T00:09:07;10.63;;;3.20;;
11998;SDS011;40817;51.520;9.954;2024-03-25T00:11:40;6.22;;;1.90;;
11998;SDS011;40817;51.520;9.954;2024-03-25T00:14:07;10.43;;;2.47;;
11998;SDS011;40817;51.520;9.954;2024-03-25T00:16:35;8.48;;;2.38;;
11998;SDS011;40817;51.520;9.954;2024-03-25T00:19:02;10.38;;;2.60;;
11998;SDS011;40817;51.520;9.954;2024-03-25T00:21:29;10.77;;;2.20;;
11998;SDS011;40817;51.520;9.954;2024-03-25T00:23:55;6.53;;;2.33;;
11998;SDS011;40817;51.520;9.954;2024-03-25T00:26:23;8.18;;;2.35;;
11998;SDS011;40817;51.520;9.954;2024-03-25T00:28:50;8.75;;;2.38;;
11998;SDS011;40817;51.520;9.954;2024-03-25T00:31:17;10.65;;;2.00;;
11998;SDS011;40817;51.520;9.954;2024-03-25T00:33:44;5.88;;;2.10;;
11998;SDS011;40817;51.520;9.954;2024-03-25T00:36:12;9.70;;;2.00;;
11998;SDS011;40817;51.520;9.954;2024-03-25T00:38:38;8.60;;;2.00;;
11998;SDS011;40817;51.520;9.954;2024-03-25T00:41:05;6.55;;;1.95;;
11998;SDS011;40817;51.520;9.954;2024-03-25T00:43:33;6.32;;;1.80;;
11998;SDS011;40817;51.520;9.954;2024-03-25T00:46:01;7.25;;;1.55;;
11998;SDS011;40817;51.520;9.954;2024-03-25T00:48:28;7.10;;;2.10;;
11998;SDS011;40817;51.520;9.954;2024-03-25T00:50:55;6.00;;;1.85;;
11998;SDS011;40817;51.520;9.954;2024-03-25T00:53:21;6.85;;;1.80;;
11998;SDS011;40817;51.520;9.954;2024-03-25T00:55:48;7.60;;;2.20;;
11998;SDS011;40817;51.520;9.954;2024-03-25T00:58:16;9.38;;;1.85;;
11998;SDS011;40817;51.520;9.954;2024-03-25T01:00:42;8.20;;;2.28;;
11998;SDS011;40817;51.520;9.954;2024-03-25T01:03:11;8.80;;;2.88;;
11998;SDS011;40817;51.520;9.954;2024-03-25T01:05:37;5.93;;;1.88;;
11998;SDS011;40817;51.520;9.954;2024-03-25T01:08:05;5.97;;;2.10;;
11998;SDS011;40817;51.520;9.954;2024-03-25T01:10:36;9.30;;;2.33;;
11998;SDS011;40817;51.520;9.954;2024-03-25T01:13:03;5.90;;;2.38;;
11998;SDS011;40817;51.520;9.954;2024-03-25T01:15:29;8.27;;;1.80;;
11998;SDS011;40817;51.520;9.954;2024-03-25T01:17:56;12.82;;;2.30;;
11998;SDS011;40817;51.520;9.954;2024-03-25T01:20:24;8.02;;;1.92;;
11998;SDS011;40817;51.520;9.954;2024-03-25T01:22:51;11.98;;;2.53;;
11998;SDS011;40817;51.520;9.954;2024-03-25T01:25:18;9.80;;;2.00;;
11998;SDS011;40817;51.520;9.954;2024-03-25T01:27:45;8.63;;;2.53;;
11998;SDS011;40817;51.520;9.954;2024-03-25T01:30:11;9.82;;;2.20;;
11998;SDS011;40817;51.520;9.954;2024-03-25T01:32:39;7.47;;;2.45;;
11998;SDS011;40817;51.520;9.954;2024-03-25T01:35:06;12.20;;;2.50;;
11998;SDS011;40817;51.520;9.954;2024-03-25T01:37:36;10.88;;;2.70;;
11998;SDS011;40817;51.520;9.954;2024-03-25T01:40:02;10.25;;;2.30;;
11998;SDS011;40817;51.520;9.954;2024-03-25T01:42:32;9.32;;;1.85;;
11998;SDS011;40817;51.520;9.954;2024-03-25T01:44:58;7.50;;;2.25;;
11998;SDS011;40817;51.520;9.954;2024-03-25T01:47:26;9.75;;;2.97;;
11998;SDS011;40817;51.520;9.954;2024-03-25T01:49:53;13.45;;;2.30;;
11998;SDS011;40817;51.520;9.954;2024-03-25T01:52:21;13.40;;;2.88;;
11998;SDS011;40817;51.520;9.954;2024-03-25T01:54:51;10.65;;;2.50;;
11998;SDS011;40817;51.520;9.954;2024-03-25T01:57:19;7.63;;;2.05;;
11998;SDS011;40817;51.520;9.954;2024-03-25T01:59:46;11.02;;;2.53;;
11998;SDS011;40817;51.520;9.954;2024-03-25T02:02:14;13.98;;;2.55;;
11998;SDS011;40817;51.520;9.954;2024-03-25T02:04:40;7.38;;;2.42;;
11998;SDS011;40817;51.520;9.954;2024-03-25T02:07:10;8.02;;;1.77;;
11998;SDS011;40817;51.520;9.954;2024-03-25T02:09:37;18.02;;;2.63;;
11998;SDS011;40817;51.520;9.954;2024-03-25T02:12:07;9.25;;;1.80;;
11998;SDS011;40817;51.520;9.954;2024-03-25T02:14:34;9.60;;;2.10;;
11998;SDS011;40817;51.520;9.954;2024-03-25T02:17:01;8.13;;;2.33;;
11998;SDS011;40817;51.520;9.954;2024-03-25T02:19:29;7.25;;;2.28;;
11998;SDS011;40817;51.520;9.954;2024-03-25T02:21:57;8.95;;;2.60;;
11998;SDS011;40817;51.520;9.954;2024-03-25T02:24:23;9.30;;;2.92;;
11998;SDS011;40817;51.520;9.954;2024-03-25T02:26:55;10.15;;;2.25;;
11998;SDS011;40817;51.520;9.954;2024-03-25T02:29:21;10.07;;;2.10;;
11998;SDS011;40817;51.520;9.954;2024-03-25T02:31:49;9.00;;;2.30;;
11998;SDS011;40817;51.520;9.954;2024-03-25T02:34:18;9.75;;;2.55;;
11998;SDS011;40817;51.520;9.954;2024-03-25T02:36:45;8.85;;;2.20;;
11998;SDS011;40817;51.520;9.954;2024-03-25T02:39:12;8.80;;;2.97;;
11998;SDS011;40817;51.520;9.954;2024-03-25T02:41:39;7.93;;;2.20;;
11998;SDS011;40817;51.520;9.954;2024-03-25T02:44:07;9.35;;;2.38;;
11998;SDS011;40817;51.520;9.954;2024-03-25T02:46:34;8.30;;;2.20;;
11998;SDS011;40817;51.520;9.954;2024-03-25T02:49:00;6.28;;;2.00;;
11998;SDS011;40817;51.520;9.954;2024-03-25T02:51:28;8.93;;;2.67;;
11998;SDS011;40817;51.520;9.954;2024-03-25T02:53:54;8.45;;;2.25;;
11998;SDS011;40817;51.520;9.954;2024-03-25T02:56:21;6.75;;;3.00;;
11998;SDS011;40817;51.520;9.954;2024-03-25T02:58:47;10.55;;;2.53;;
11998;SDS011;40817;51.520;9.954;2024-03-25T03:01:16;12.75;;;2.13;;
11998;SDS011;40817;51.520;9.954;2024-03-25T03:03:43;4.97;;;1.88;;
11998;SDS011;40817;51.520;9.954;2024-03-25T03:06:10;12.10;;;2.10;;
11998;SDS011;40817;51.520;9.954;2024-03-25T03:08:37;8.82;;;2.20;;
11998;SDS011;40817;51.520;9.954;2024-03-25T03:11:04;14.80;;;2.75;;
11998;SDS011;40817;51.520;9.954;2024-03-25T03:13:30;7.50;;;1.77;;
11998;SDS011;40817;51.520;9.954;2024-03-25T03:15:57;6.88;;;1.95;;
11998;SDS011;40817;51.520;9.954;2024-03-25T03:18:25;8.23;;;1.83;;
11998;SDS011;40817;51.520;9.954;2024-03-25T03:20:52;6.28;;;2.10;;
11998;SDS011;40817;51.520;9.954;2024-03-25T03:23:20;5.53;;;1.73;;
11998;SDS011;40817;51.520;9.954;2024-03-25T03:25:48;6.97;;;1.90;;
11998;SDS011;40817;51.520;9.954;2024-03-25T03:28:14;7.20;;;2.20;;
11998;SDS011;40817;51.520;9.954;2024-03-25T03:30:41;6.47;;;2.45;;
11998;SDS011;40817;51.520;9.954;2024-03-25T03:33:08;9.02;;;2.55;;
11998;SDS011;40817;51.520;9.954;2024-03-25T03:35:36;10.05;;;2.58;;
11998;SDS011;40817;51.520;9.954;2024-03-25T03:38:03;7.20;;;2.30;;
11998;SDS011;40817;51.520;9.954;2024-03-25T03:40:31;9.35;;;2.40;;
11998;SDS011;40817;51.520;9.954;2024-03-25T03:42:58;5.72;;;1.70;;
11998;SDS011;40817;51.520;9.954;2024-03-25T03:45:25;8.90;;;2.17;;
11998;SDS011;40817;51.520;9.954;2024-03-25T03:48:11;11.80;;;3.15;;
11998;SDS011;40817;51.520;9.954;2024-03-25T03:50:40;6.80;;;2.03;;
11998;SDS011;40817;51.520;9.954;2024-03-25T03:53:07;9.30;;;1.75;;
11998;SDS011;40817;51.520;9.954;2024-03-25T03:55:35;8.73;;;1.55;;
11998;SDS011;40817;51.520;9.954;2024-03-25T04:02:59;5.00;;;1.25;;
11998;SDS011;40817;51.520;9.954;2024-03-25T04:05:28;5.18;;;1.25;;
11998;SDS011;40817;51.520;9.954;2024-03-25T04:07:56;4.70;;;1.60;;
11998;SDS011;40817;51.520;9.954;2024-03-25T04:10:23;4.63;;;1.45;;
11998;SDS011;40817;51.520;9.954;2024-03-25T04:12:52;5.82;;;1.70;;
11998;SDS011;40817;51.520;9.954;2024-03-25T04:15:20;5.25;;;2.05;;
11998;SDS011;40817;51.520;9.954;2024-03-25T04:17:47;9.52;;;2.35;;
11998;SDS011;40817;51.520;9.954;2024-03-25T04:20:15;6.63;;;1.25;;
11998;SDS011;40817;51.520;9.954;2024-03-25T04:25:11;8.95;;;2.00;;
11998;SDS011;40817;51.520;9.954;2024-03-25T04:27:39;6.38;;;1.98;;
11998;SDS011;40817;51.520;9.954;2024-03-25T04:30:07;4.05;;;1.20;;
11998;SDS011;40817;51.520;9.954;2024-03-25T04:32:34;6.28;;;1.40;;
11998;SDS011;40817;51.520;9.954;2024-03-25T04:35:02;5.85;;;2.58;;
11998;SDS011;40817;51.520;9.954;2024-03-25T04:37:31;4.25;;;1.40;;
11998;SDS011;40817;51.520;9.954;2024-03-25T04:39:58;8.05;;;2.88;;
11998;SDS011;40817;51.520;9.954;2024-03-25T04:42:26;4.82;;;1.63;;
11998;SDS011;40817;51.520;9.954;2024-03-25T04:44:52;5.72;;;1.65;;
11998;SDS011;40817;51.520;9.954;2024-03-25T04:47:19;4.32;;;2.25;;
11998;SDS011;40817;51.520;9.954;2024-03-25T04:52:12;7.28;;;1.70;;
11998;SDS011;40817;51.520;9.954;2024-03-25T04:54:40;5.22;;;1.83;;
11998;SDS011;40817;51.520;9.954;2024-03-25T04:57:06;6.53;;;1.95;;
11998;SDS011;40817;51.520;9.954;2024-03-25T04:59:34;7.40;;;2.20;;
11998;SDS011;40817;51.520;9.954;2024-03-25T05:02:00;8.45;;;2.25;;
11998;SDS011;40817;51.520;9.954;2024-03-25T05:06:53;5.47;;;1.50;;
11998;SDS011;40817;51.520;9.954;2024-03-25T05:09:19;8.20;;;2.00;;
11998;SDS011;40817;51.520;9.954;2024-03-25T05:11:46;9.95;;;2.60;;
11998;SDS011;40817;51.520;9.954;2024-03-25T05:14:12;9.00;;;2.33;;
11998;SDS011;40817;51.520;9.954;2024-03-25T05:16:40;5.97;;;2.05;;
11998;SDS011;40817;51.520;9.954;2024-03-25T05:19:06;8.35;;;3.13;;
11998;SDS011;40817;51.520;9.954;2024-03-25T05:21:32;7.75;;;1.95;;
11998;SDS011;40817;51.520;9.954;2024-03-25T05:23:59;11.70;;;2.33;;
11998;SDS011;40817;51.520;9.954;2024-03-25T05:26:25;6.20;;;2.80;;
11998;SDS011;40817;51.520;9.954;2024-03-25T05:28:54;7.40;;;2.13;;
11998;SDS011;40817;51.520;9.954;2024-03-25T05:31:22;4.63;;;1.90;;
11998;SDS011;40817;51.520;9.954;2024-03-25T05:33:50;6.15;;;2.13;;
11998;SDS011;40817;51.520;9.954;2024-03-25T05:36:17;7.38;;;2.15;;
11998;SDS011;40817;51.520;9.954;2024-03-25T05:38:43;5.90;;;2.20;;
11998;SDS011;40817;51.520;9.954;2024-03-25T05:41:10;4.32;;;2.00;;
11998;SDS011;40817;51.520;9.954;2024-03-25T05:43:37;6.15;;;2.55;;
11998;SDS011;40817;51.520;9.954;2024-03-25T05:46:03;5.10;;;2.30;;
11998;SDS011;40817;51.520;9.954;2024-03-25T05:48:30;7.88;;;2.38;;
11998;SDS011;40817;51.520;9.954;2024-03-25T05:50:59;7.25;;;2.22;;
11998;SDS011;40817;51.520;9.954;2024-03-25T05:53:26;4.47;;;1.83;;
11998;SDS011;40817;51.520;9.954;2024-03-25T05:55:53;9.07;;;2.17;;
11998;SDS011;40817;51.520;9.954;2024-03-25T05:58:19;6.18;;;1.77;;
11998;SDS011;40817;51.520;9.954;2024-03-25T06:00:47;6.00;;;2.10;;
11998;SDS011;40817;51.520;9.954;2024-03-25T06:03:14;5.10;;;1.92;;
11998;SDS011;40817;51.520;9.954;2024-03-25T06:05:40;6.00;;;1.98;;
11998;SDS011;40817;51.520;9.954;2024-03-25T06:08:08;8.65;;;2.30;;
11998;SDS011;40817;51.520;9.954;2024-03-25T06:10:35;5.32;;;1.90;;
11998;SDS011;40817;51.520;9.954;2024-03-25T06:13:03;7.35;;;1.58;;
11998;SDS011;40817;51.520;9.954;2024-03-25T06:17:55;5.82;;;1.55;;
11998;SDS011;40817;51.520;9.954;2024-03-25T06:22:48;7.78;;;1.80;;
11998;SDS011;40817;51.520;9.954;2024-03-25T06:25:16;6.63;;;2.00;;
11998;SDS011;40817;51.520;9.954;2024-03-25T06:27:43;5.40;;;1.98;;
11998;SDS011;40817;51.520;9.954;2024-03-25T06:30:09;6.50;;;1.80;;
11998;SDS011;40817;51.520;9.954;2024-03-25T06:32:56;4.38;;;1.65;;
11998;SDS011;40817;51.520;9.954;2024-03-25T06:35:42;4.93;;;2.40;;
11998;SDS011;40817;51.520;9.954;2024-03-25T06:38:10;6.20;;;2.22;;
11998;SDS011;40817;51.520;9.954;2024-03-25T06:43:04;8.05;;;2.10;;
11998;SDS011;40817;51.520;9.954;2024-03-25T06:45:30;11.07;;;2.47;;
11998;SDS011;40817;51.520;9.954;2024-03-25T06:47:57;7.55;;;2.63;;
11998;SDS011;40817;51.520;9.954;2024-03-25T06:50:23;6.32;;;2.55;;
11998;SDS011;40817;51.520;9.954;2024-03-25T06:52:50;11.82;;;4.43;;
11998;SDS011;40817;51.520;9.954;2024-03-25T06:55:16;8.57;;;3.20;;
11998;SDS011;40817;51.520;9.954;2024-03-25T06:57:44;11.82;;;2.90;;
11998;SDS011;40817;51.520;9.954;2024-03-25T07:00:11;7.97;;;2.17;;
11998;SDS011;40817;51.520;9.954;2024-03-25T07:02:38;9.05;;;2.75;;
11998;SDS011;40817;51.520;9.954;2024-03-25T07:05:04;11.30;;;5.30;;
11998;SDS011;40817;51.520;9.954;2024-03-25T07:07:32;10.32;;;3.42;;
11998;SDS011;40817;51.520;9.954;2024-03-25T07:09:59;13.13;;;3.60;;
11998;SDS011;40817;51.520;9.954;2024-03-25T07:12:25;11.35;;;3.30;;
11998;SDS011;40817;51.520;9.954;2024-03-25T07:14:53;12.35;;;3.65;;
11998;SDS011;40817;51.520;9.954;2024-03-25T07:17:19;9.88;;;3.30;;
11998;SDS011;40817;51.520;9.954;2024-03-25T07:19:46;13.13;;;3.15;;
11998;SDS011;40817;51.520;9.954;2024-03-25T07:22:12;10.68;;;4.10;;
11998;SDS011;40817;51.520;9.954;2024-03-25T07:24:38;12.07;;;3.90;;
11998;SDS011;40817;51.520;9.954;2024-03-25T07:27:05;11.13;;;5.65;;
11998;SDS011;40817;51.520;9.954;2024-03-25T07:29:31;16.88;;;4.20;;
11998;SDS011;40817;51.520;9.954;2024-03-25T07:31:59;14.05;;;5.20;;
11998;SDS011;40817;51.520;9.954;2024-03-25T07:34:25;11.70;;;3.72;;
11998;SDS011;40817;51.520;9.954;2024-03-25T07:36:52;15.45;;;3.72;;
11998;SDS011;40817;51.520;9.954;2024-03-25T07:39:18;14.30;;;4.22;;
11998;SDS011;40817;51.520;9.954;2024-03-25T07:41:44;11.45;;;4.53;;
11998;SDS011;40817;51.520;9.954;2024-03-25T07:44:11;10.52;;;3.80;;
11998;SDS011;40817;51.520;9.954;2024-03-25T07:46:37;9.75;;;4.18;;
11998;SDS011;40817;51.520;9.954;2024-03-25T07:49:05;13.75;;;4.40;;
11998;SDS011;40817;51.520;9.954;2024-03-25T07:51:31;20.13;;;5.13;;
11998;SDS011;40817;51.520;9.954;2024-03-25T07:53:57;10.90;;;3.50;;
11998;SDS011;40817;51.520;9.954;2024-03-25T07:56:23;12.45;;;3.70;;
11998;SDS011;40817;51.520;9.954;2024-03-25T07:58:50;8.50;;;3.58;;
11998;SDS011;40817;51.520;9.954;2024-03-25T08:01:19;13.07;;;4.38;;
11998;SDS011;40817;51.520;9.954;2024-03-25T08:03:45;15.43;;;4.80;;
11998;SDS011;40817;51.520;9.954;2024-03-25T08:06:13;15.98;;;4.28;;
11998;SDS011;40817;51.520;9.954;2024-03-25T08:08:39;11.45;;;3.95;;
11998;SDS011;40817;51.520;9.954;2024-03-25T08:11:05;10.85;;;3.40;;
11998;SDS011;40817;51.520;9.954;2024-03-25T08:13:32;10.35;;;3.88;;
11998;SDS011;40817;51.520;9.954;2024-03-25T08:15:58;12.65;;;3.60;;
11998;SDS011;40817;51.520;9.954;2024-03-25T08:18:25;13.40;;;4.85;;
11998;SDS011;40817;51.520;9.954;2024-03-25T08:20:51;11.48;;;3.83;;
11998;SDS011;40817;51.520;9.954;2024-03-25T08:23:19;10.95;;;3.50;;
11998;SDS011;40817;51.520;9.954;2024-03-25T08:25:46;13.82;;;3.30;;
11998;SDS011;40817;51.520;9.954;2024-03-25T08:28:12;10.05;;;3.38;;
11998;SDS011;40817;51.520;9.954;2024-03-25T08:30:38;9.38;;;3.53;;
11998;SDS011;40817;51.520;9.954;2024-03-25T08:33:05;9.07;;;3.25;;
11998;SDS011;40817;51.520;9.954;2024-03-25T08:35:31;11.02;;;3.53;;
11998;SDS011;40817;51.520;9.954;2024-03-25T08:37:58;16.15;;;4.22;;
11998;SDS011;40817;51.520;9.954;2024-03-25T08:40:25;17.02;;;3.85;;
11998;SDS011;40817;51.520;9.954;2024-03-25T08:42:52;11.38;;;3.33;;
11998;SDS011;40817;51.520;9.954;2024-03-25T08:45:18;10.88;;;2.97;;
11998;SDS011;40817;51.520;9.954;2024-03-25T08:47:44;13.68;;;2.88;;
11998;SDS011;40817;51.520;9.954;2024-03-25T08:50:11;11.73;;;3.17;;
11998;SDS011;40817;51.520;9.954;2024-03-25T08:52:37;12.35;;;2.92;;
11998;SDS011;40817;51.520;9.954;2024-03-25T08:55:04;9.98;;;2.92;;
11998;SDS011;40817;51.520;9.954;2024-03-25T08:57:33;9.18;;;2.45;;
11998;SDS011;40817;51.520;9.954;2024-03-25T08:59:59;10.80;;;3.03;;
11998;SDS011;40817;51.520;9.954;2024-03-25T09:02:25;8.68;;;2.33;;
11998;SDS011;40817;51.520;9.954;2024-03-25T09:04:52;15.07;;;3.65;;
11998;SDS011;40817;51.520;9.954;2024-03-25T09:07:18;8.02;;;2.67;;
11998;SDS011;40817;51.520;9.954;2024-03-25T09:09:44;10.25;;;2.65;;
11998;SDS011;40817;51.520;9.954;2024-03-25T09:12:29;10.52;;;2.30;;
11998;SDS011;40817;51.520;9.954;2024-03-25T09:14:57;6.13;;;2.10;;
11998;SDS011;40817;51.520;9.954;2024-03-25T09:17:23;7.13;;;2.47;;
11998;SDS011;40817;51.520;9.954;2024-03-25T09:19:49;10.90;;;2.55;;
11998;SDS011;40817;51.520;9.954;2024-03-25T09:22:16;12.05;;;2.33;;
11998;SDS011;40817;51.520;9.954;2024-03-25T09:24:42;6.88;;;1.77;;
11998;SDS011;40817;51.520;9.954;2024-03-25T09:27:08;10.18;;;2.00;;
11998;SDS011;40817;51.520;9.954;2024-03-25T09:29:35;9.02;;;2.10;;
11998;SDS011;40817;51.520;9.954;2024-03-25T09:32:02;10.30;;;2.30;;
11998;SDS011;40817;51.520;9.954;2024-03-25T09:34:30;10.68;;;1.92;;
11998;SDS011;40817;51.520;9.954;2024-03-25T09:36:56;8.88;;;2.40;;
11998;SDS011;40817;51.520;9.954;2024-03-25T09:39:23;7.53;;;2.00;;
11998;SDS011;40817;51.520;9.954;2024-03-25T09:41:49;8.70;;;1.95;;
11998;SDS011;40817;51.520;9.954;2024-03-25T09:44:20;9.35;;;1.83;;
11998;SDS011;40817;51.520;9.954;2024-03-25T09:46:49;8.80;;;2.03;;
11998;SDS011;40817;51.520;9.954;2024-03-25T09:49:17;10.10;;;1.80;;
11998;SDS011;40817;51.520;9.954;2024-03-25T09:51:45;10.25;;;2.10;;
11998;SDS011;40817;51.520;9.954;2024-03-25T09:54:12;13.15;;;2.75;;
11998;SDS011;40817;51.520;9.954;2024-03-25T09:56:38;4.55;;;1.50;;
11998;SDS011;40817;51.520;9.954;2024-03-25T09:59:05;12.65;;;1.92;;
11998;SDS011;40817;51.520;9.954;2024-03-25T10:01:32;8.80;;;1.70;;
11998;SDS011;40817;51.520;9.954;2024-03-25T10:03:59;7.55;;;1.80;;
11998;SDS011;40817;51.520;9.954;2024-03-25T10:06:27;5.63;;;1.50;;
11998;SDS011;40817;51.520;9.954;2024-03-25T10:08:53;7.97;;;1.70;;
11998;SDS011;40817;51.520;9.954;2024-03-25T10:11:19;9.30;;;1.77;;
11998;SDS011;40817;51.520;9.954;2024-03-25T10:13:46;7.95;;;1.58;;
11998;SDS011;40817;51.520;9.954;2024-03-25T10:16:12;11.00;;;2.05;;
11998;SDS011;40817;51.520;9.954;2024-03-25T10:18:38;7.97;;;2.10;;
11998;SDS011;40817;51.520;9.954;2024-03-25T10:21:05;8.98;;;1.70;;
11998;SDS011;40817;51.520;9.954;2024-03-25T10:23:39;8.00;;;2.17;;
11998;SDS011;40817;51.520;9.954;2024-03-25T10:26:06;10.90;;;2.63;;
11998;SDS011;40817;51.520;9.954;2024-03-25T10:28:32;12.43;;;2.63;;
11998;SDS011;40817;51.520;9.954;2024-03-25T10:31:02;9.95;;;1.90;;
11998;SDS011;40817;51.520;9.954;2024-03-25T10:33:29;9.70;;;2.22;;
11998;SDS011;40817;51.520;9.954;2024-03-25T10:35:56;11.75;;;2.05;;
11998;SDS011;40817;51.520;9.954;2024-03-25T10:38:25;15.07;;;3.13;;
11998;SDS011;40817;51.520;9.954;2024-03-25T10:40:54;9.73;;;2.40;;
11998;SDS011;40817;51.520;9.954;2024-03-25T10:43:22;11.20;;;2.25;;
11998;SDS011;40817;51.520;9.954;2024-03-25T10:45:54;14.00;;;2.28;;
11998;SDS011;40817;51.520;9.954;2024-03-25T10:48:24;9.52;;;3.05;;
11998;SDS011;40817;51.520;9.954;2024-03-25T10:50:56;8.55;;;1.65;;
11998;SDS011;40817;51.520;9.954;2024-03-25T10:53:23;6.65;;;2.28;;
11998;SDS011;40817;51.520;9.954;2024-03-25T10:55:55;7.28;;;1.70;;
11998;SDS011;40817;51.520;9.954;2024-03-25T10:58:22;10.90;;;2.78;;
11998;SDS011;40817;51.520;9.954;2024-03-25T11:00:50;15.52;;;2.40;;
11998;SDS011;40817;51.520;9.954;2024-03-25T11:03:19;8.75;;;2.25;;
11998;SDS011;40817;51.520;9.954;2024-03-25T11:05:46;8.05;;;2.08;;
11998;SDS011;40817;51.520;9.954;2024-03-25T11:08:13;8.60;;;2.00;;
11998;SDS011;40817;51.520;9.954;2024-03-25T11:10:41;9.02;;;2.22;;
11998;SDS011;40817;51.520;9.954;2024-03-25T11:13:12;5.28;;;1.85;;
11998;SDS011;40817;51.520;9.954;2024-03-25T11:15:42;8.25;;;1.75;;
11998;SDS011;40817;51.520;9.954;2024-03-25T11:18:11;5.15;;;1.70;;
11998;SDS011;40817;51.520;9.954;2024-03-25T11:20:38;7.78;;;1.85;;
11998;SDS011;40817;51.520;9.954;2024-03-25T11:23:09;9.95;;;2.47;;
11998;SDS011;40817;51.520;9.954;2024-03-25T11:25:36;12.82;;;1.73;;
11998;SDS011;40817;51.520;9.954;2024-03-25T11:28:03;6.63;;;1.50;;
11998;SDS011;40817;51.520;9.954;2024-03-25T11:30:32;7.28;;;1.60;;
11998;SDS011;40817;51.520;9.954;2024-03-25T11:33:01;11.88;;;2.03;;
11998;SDS011;40817;51.520;9.954;2024-03-25T11:35:29;5.68;;;1.50;;
11998;SDS011;40817;51.520;9.954;2024-03-25T11:38:02;4.75;;;1.65;;
11998;SDS011;40817;51.520;9.954;2024-03-25T11:40:29;7.10;;;1.98;;
11998;SDS011;40817;51.520;9.954;2024-03-25T11:42:56;5.03;;;1.65;;
11998;SDS011;40817;51.520;9.954;2024-03-25T11:45:24;6.28;;;1.73;;
11998;SDS011;40817;51.520;9.954;2024-03-25T11:47:52;8.82;;;1.48;;
11998;SDS011;40817;51.520;9.954;2024-03-25T11:50:19;6.55;;;1.63;;
11998;SDS011;40817;51.520;9.954;2024-03-25T11:52:45;3.25;;;1.38;;
11998;SDS011;40817;51.520;9.954;2024-03-25T11:57:42;6.07;;;1.48;;
11998;SDS011;40817;51.520;9.954;2024-03-25T12:00:09;5.20;;;1.45;;
11998;SDS011;40817;51.520;9.954;2024-03-25T12:02:36;7.53;;;1.50;;
11998;SDS011;40817;51.520;9.954;2024-03-25T12:05:05;4.35;;;1.60;;
11998;SDS011;40817;51.520;9.954;2024-03-25T12:07:33;8.43;;;1.52;;
11998;SDS011;40817;51.520;9.954;2024-03-25T12:10:00;4.28;;;1.52;;
11998;SDS011;40817;51.520;9.954;2024-03-25T12:12:44;8.23;;;2.55;;
11998;SDS011;40817;51.520;9.954;2024-03-25T12:15:11;4.78;;;1.55;;
11998;SDS011;40817;51.520;9.954;2024-03-25T12:17:37;7.53;;;2.83;;
11998;SDS011;40817;51.520;9.954;2024-03-25T12:22:34;5.38;;;1.95;;
11998;SDS011;40817;51.520;9.954;2024-03-25T12:25:02;6.18;;;1.75;;
11998;SDS011;40817;51.520;9.954;2024-03-25T12:27:31;6.90;;;1.70;;
11998;SDS011;40817;51.520;9.954;2024-03-25T12:29:59;8.65;;;1.60;;
11998;SDS011;40817;51.520;9.954;2024-03-25T12:32:36;6.22;;;1.42;;
11998;SDS011;40817;51.520;9.954;2024-03-25T12:35:07;7.00;;;1.40;;
11998;SDS011;40817;51.520;9.954;2024-03-25T12:37:35;5.32;;;1.70;;
11998;SDS011;40817;51.520;9.954;2024-03-25T12:40:03;6.22;;;1.38;;
11998;SDS011;40817;51.520;9.954;2024-03-25T12:42:33;4.63;;;1.15;;
11998;SDS011;40817;51.520;9.954;2024-03-25T12:44:59;4.40;;;1.38;;
11998;SDS011;40817;51.520;9.954;2024-03-25T12:47:25;4.82;;;1.40;;
11998;SDS011;40817;51.520;9.954;2024-03-25T12:49:52;5.95;;;1.40;;
11998;SDS011;40817;51.520;9.954;2024-03-25T12:52:19;5.60;;;1.77;;
11998;SDS011;40817;51.520;9.954;2024-03-25T12:54:46;4.90;;;1.50;;
11998;SDS011;40817;51.520;9.954;2024-03-25T12:57:12;6.68;;;1.58;;
11998;SDS011;40817;51.520;9.954;2024-03-25T12:59:39;8.13;;;1.33;;
11998;SDS011;40817;51.520;9.954;2024-03-25T13:02:05;10.88;;;1.80;;
11998;SDS011;40817;51.520;9.954;2024-03-25T13:04:36;10.20;;;1.77;;
11998;SDS011;40817;51.520;9.954;2024-03-25T13:09:30;4.47;;;1.27;;
11998;SDS011;40817;51.520;9.954;2024-03-25T13:11:57;4.03;;;1.00;;
11998;SDS011;40817;51.520;9.954;2024-03-25T13:14:24;5.93;;;1.17;;
11998;SDS011;40817;51.520;9.954;2024-03-25T13:16:50;6.78;;;1.10;;
11998;SDS011;40817;51.520;9.954;2024-03-25T13:19:17;4.82;;;1.38;;
11998;SDS011;40817;51.520;9.954;2024-03-25T13:21:43;7.22;;;1.55;;
11998;SDS011;40817;51.520;9.954;2024-03-25T13:26:37;7.47;;;1.65;;
11998;SDS011;40817;51.520;9.954;2024-03-25T13:29:04;7.35;;;1.90;;
11998;SDS011;40817;51.520;9.954;2024-03-25T13:31:30;7.72;;;1.42;;
11998;SDS011;40817;51.520;9.954;2024-03-25T13:36:23;7.25;;;1.30;;
11998;SDS011;40817;51.520;9.954;2024-03-25T13:38:49;4.22;;;1.40;;
11998;SDS011;40817;51.520;9.954;2024-03-25T13:41:15;3.70;;;1.20;;
11998;SDS011;40817;51.520;9.954;2024-03-25T13:48:36;6.77;;;1.60;;
11998;SDS011;40817;51.520;9.954;2024-03-25T13:51:03;5.03;;;1.40;;
11998;SDS011;40817;51.520;9.954;2024-03-25T13:53:29;5.10;;;1.23;;
11998;SDS011;40817;51.520;9.954;2024-03-25T13:55:56;4.25;;;1.13;;
11998;SDS011;40817;51.520;9.954;2024-03-25T13:58:22;5.50;;;1.20;;
11998;SDS011;40817;51.520;9.954;2024-03-25T14:00:50;6.13;;;1.65;;
11998;SDS011;40817;51.520;9.954;2024-03-25T14:03:16;4.68;;;1.40;;
11998;SDS011;40817;51.520;9.954;2024-03-25T14:05:43;7.45;;;1.42;;
11998;SDS011;40817;51.520;9.954;2024-03-25T14:08:09;8.90;;;1.88;;
11998;SDS011;40817;51.520;9.954;2024-03-25T14:10:36;6.90;;;1.63;;
11998;SDS011;40817;51.520;9.954;2024-03-25T14:13:02;6.68;;;1.85;;
11998;SDS011;40817;51.520;9.954;2024-03-25T14:15:29;4.53;;;1.27;;
11998;SDS011;40817;51.520;9.954;2024-03-25T14:17:57;4.68;;;1.48;;
11998;SDS011;40817;51.520;9.954;2024-03-25T14:20:23;4.28;;;1.42;;
11998;SDS011;40817;51.520;9.954;2024-03-25T14:22:49;5.90;;;1.98;;
11998;SDS011;40817;51.520;9.954;2024-03-25T14:25:16;3.05;;;1.23;;
11998;SDS011;40817;51.520;9.954;2024-03-25T14:27:42;9.95;;;2.13;;
11998;SDS011;40817;51.520;9.954;2024-03-25T14:30:09;3.65;;;1.20;;
11998;SDS011;40817;51.520;9.954;2024-03-25T14:32:37;3.47;;;1.20;;
11998;SDS011;40817;51.520;9.954;2024-03-25T14:35:05;6.28;;;1.27;;
11998;SDS011;40817;51.520;9.954;2024-03-25T14:37:32;4.80;;;1.02;;
11998;SDS011;40817;51.520;9.954;2024-03-25T14:39:58;4.97;;;1.20;;
11998;SDS011;40817;51.520;9.954;2024-03-25T14:42:25;5.53;;;1.95;;
11998;SDS011;40817;51.520;9.954;2024-03-25T14:44:51;4.32;;;1.00;;
11998;SDS011;40817;51.520;9.954;2024-03-25T14:49:44;4.47;;;0.88;;
11998;SDS011;40817;51.520;9.954;2024-03-25T14:52:12;5.45;;;1.20;;
11998;SDS011;40817;51.520;9.954;2024-03-25T14:54:38;3.30;;;1.30;;
11998;SDS011;40817;51.520;9.954;2024-03-25T14:57:05;4.78;;;1.42;;
11998;SDS011;40817;51.520;9.954;2024-03-25T14:59:31;7.25;;;1.15;;
11998;SDS011;40817;51.520;9.954;2024-03-25T15:01:58;5.70;;;1.35;;
11998;SDS011;40817;51.520;9.954;2024-03-25T15:04:27;4.57;;;1.33;;
11998;SDS011;40817;51.520;9.954;2024-03-25T15:06:53;5.40;;;1.30;;
11998;SDS011;40817;51.520;9.954;2024-03-25T15:09:21;6.22;;;1.30;;
11998;SDS011;40817;51.520;9.954;2024-03-25T15:11:48;3.05;;;1.10;;
11998;SDS011;40817;51.520;9.954;2024-03-25T15:14:14;5.93;;;1.45;;
11998;SDS011;40817;51.520;9.954;2024-03-25T15:16:40;5.22;;;1.25;;
11998;SDS011;40817;51.520;9.954;2024-03-25T15:19:07;5.07;;;1.40;;
11998;SDS011;40817;51.520;9.954;2024-03-25T15:21:33;3.05;;;1.15;;
11998;SDS011;40817;51.520;9.954;2024-03-25T15:24:00;5.13;;;1.20;;